Nearby METAR Reports

 

KPMD - Palmdale, California, USA
Distance from station: NNE 12mi, 19km
Updated: Tue, 11-Aug-2020 7:53pm PDT
Clear
Clear
 Wind from S
Wind: S 5 mph , 7 km/h
Temperature: 84°F , 29°C
Dew Point: 18°F , -8°C
Humidity: 8%
Barometer: 29.92 inHg , 1013.2 hPa
Clouds: Clear
Visibility: 10 miles , 16 km
2020/08/12 02:53 KPMD 120253Z 18004KT 10SM CLR 29/M08 A2992 RMK AO2 SLP099 T02891078 53004
KWJF - Lancaster/Fox, California, USA
Distance from station: N 17mi, 27km
Updated: Tue, 11-Aug-2020 8:56pm PDT
Clear
Clear
 Wind from WSW
Wind: WSW 15 mph , 24 km/h
Temperature: 81°F , 27°C
Dew Point: 37°F , 3°C
Humidity: 21%
Barometer: 29.93 inHg , 1013.5 hPa
Clouds: Clear
Visibility: 10 miles , 16 km
2020/08/12 03:56 KWJF 120356Z 24013KT 10SM CLR 27/03 A2993 RMK AO2 SLP111 T02670028
 
KMWS - Mount Wilson, California, USA
Distance from station: SSE 18mi, 30km
Updated: Wed, 13-May-2015 6:45am PDT
NOT Current

 Wind from S
Wind: S 3 mph , 6 km/h, Gust: 5 mph , 7 km/h
Temperature: 43°F , 6°C
Dew Point: -0°F , -18°C
Humidity: 16%
2015/05/13 13:45 KMWS 131345Z 18003G04KT 06/M18 RMK SNOW DEPTH 1.00
KWHP - La / Whiteman, California, USA
Distance from station: SW 21mi, 34km
Updated: Tue, 11-Aug-2020 7:55pm PDT
Clear
Clear
 Wind from calm
Wind: Calm
Temperature: 82°F , 28°C
Dew Point: 46°F , 8°C
Humidity: 28%
Barometer: 29.89 inHg , 1012.2 hPa
Clouds: Clear
Visibility: 10 miles , 16 km
2020/08/12 02:55 KWHP 120255Z 00000KT 10SM SKC 28/08 A2989
 
KBUR - Burbank, California, USA
Distance from station: SSW 22mi, 35km
Updated: Tue, 11-Aug-2020 8:53pm PDT
Clear
Clear
 Wind from ESE
Wind: ESE 9 mph , 15 km/h
Temperature: 72°F , 22°C
Dew Point: 54°F , 12°C
Humidity: 53%
Barometer: 29.87 inHg , 1011.5 hPa
Clouds: Clear
Visibility: 10 miles , 16 km
2020/08/12 03:53 KBUR 120353Z AUTO 12008KT 10SM CLR 22/12 A2987 RMK AO2 SLP104 T02220122 $
KVNY - Van Nuys, California, USA
Distance from station: SW 25mi, 40km
Updated: Tue, 11-Aug-2020 8:51pm PDT
Clear
Clear
 Wind from WSW
Wind: WSW 3 mph , 6 km/h
Temperature: 82°F , 28°C
Dew Point: 43°F , 6°C
Humidity: 25%
Barometer: 29.87 inHg , 1011.5 hPa
Clouds: Clear
Visibility: 10 miles , 16 km
2020/08/12 03:51 KVNY 120351Z 24003KT 10SM CLR 28/06 A2987 RMK AO2 SLP103 T02780056
 
KEDW - Edwards Afb, California, USA
Distance from station: NNE 33mi, 53km
Updated: Tue, 11-Aug-2020 8:58pm PDT
Clear
Clear
 Wind from WSW
Wind: WSW 15 mph , 24 km/h
Temperature: 81°F , 27°C
Dew Point: 37°F , 3°C
Humidity: 21%
Barometer: 29.89 inHg , 1012.2 hPa
Clouds: Clear
Visibility: 50 miles , 80 km
2020/08/12 03:58 KEDW 120358Z 24013KT 50SM CLR 27/03 A2989 RMK AO2A SLP097 T02740031
KSMO - Santa Monica, California, USA
Distance from station: SSW 35mi, 57km
Updated: Tue, 11-Aug-2020 8:51pm PDT
Few Clouds
Few Clouds
 Wind from S
Wind: S 5 mph , 7 km/h
Temperature: 63°F , 17°C
Dew Point: 57°F , 14°C
Humidity: 83%
Barometer: 29.88 inHg , 1011.9 hPa
Clouds: Few Clouds
Visibility: 10 miles , 16 km
Cloud details: Few Clouds 700 ft
2020/08/12 03:51 KSMO 120351Z 18004KT 10SM FEW007 17/14 A2988 RMK AO2 SLP118 T01670144
 
KLAX - Los Angeles, California, USA
Distance from station: SSW 39mi, 63km
Updated: Tue, 11-Aug-2020 8:53pm PDT
Clear
Clear
 Wind from W
Wind: W 12 mph , 19 km/h
Temperature: 63°F , 17°C
Dew Point: 57°F , 14°C
Humidity: 83%
Barometer: 29.88 inHg , 1011.9 hPa
Clouds: Clear
Visibility: 10 miles , 16 km
2020/08/12 03:53 KLAX 120353Z 26010KT 10SM SKC 17/14 A2988 RMK SLP117 T01720144
KMHV - Mojave, California, USA
Distance from station: N 41mi, 66km
Updated: Tue, 11-Aug-2020 8:40pm PDT
Clear
Clear
 Wind from varies
Wind: varies 5 mph , 7 km/h
Temperature: 84°F , 29°C
Dew Point: 45°F , 7°C
Humidity: 25%
Barometer: 29.93 inHg , 1013.5 hPa
Clouds: Clear
Visibility: 10 miles , 16 km
2020/08/12 03:40 KMHV 120340Z AUTO VRB04KT 10SM CLR 29/07 A2993 RMK A01
 
KFUL - Fullerton, California, USA
Distance from station: SSE 44mi, 70km
Updated: Tue, 11-Aug-2020 8:53pm PDT
Clear
Clear
 Wind from W
Wind: W 3 mph , 6 km/h
Temperature: 70°F , 21°C
Dew Point: 55°F , 13°C
Humidity: 60%
Barometer: 29.87 inHg , 1011.5 hPa
Clouds: Clear
Visibility: 10 miles , 16 km
2020/08/12 03:53 KFUL 120353Z 27003KT 10SM CLR 21/13 A2987 RMK AO2 SLP114 T02110128
KONT - Ontario, California, USA
Distance from station: SE 45mi, 72km
Updated: Tue, 11-Aug-2020 8:53pm PDT
Clear
Clear
 Wind from WSW
Wind: WSW 12 mph , 19 km/h
Temperature: 77°F , 25°C
Dew Point: 48°F , 9°C
Humidity: 36%
Barometer: 29.89 inHg , 1012.2 hPa
Clouds: Clear
Visibility: 10 miles , 16 km
2020/08/12 03:53 KONT 120353Z 24010KT 10SM CLR 25/09 A2989 RMK AO2 SLP105 T02500094
 
KLGB - Long Beach, California, USA
Distance from station: S 46mi, 74km
Updated: Tue, 11-Aug-2020 8:53pm PDT
Clear
Clear
 Wind from NW
Wind: NW 6 mph , 9 km/h
Temperature: 64°F , 18°C
Dew Point: 59°F , 15°C
Humidity: 83%
Barometer: 29.88 inHg , 1011.9 hPa
Clouds: Clear
Visibility: 10 miles , 16 km
2020/08/12 03:53 KLGB 120353Z 32005KT 10SM CLR 18/15 A2988 RMK AO2 SLP118 T01830150
KVCV - Victorville, California, USA
Distance from station: E 46mi, 74km
Updated: Tue, 11-Aug-2020 6:45pm PDT
NOT Current
Clear
Clear
 Wind from S
Wind: S 14 mph , 22 km/h
Barometer: 29.92 inHg , 1013.2 hPa
Clouds: Clear
Visibility: 10 miles , 16 km
2020/08/12 01:45 KVCV 120145Z 18012KT 10SM SKC A2992
 
KTSP - Tehachapi, California, USA
Distance from station: NNW 48mi, 77km
Updated: Tue, 11-Aug-2020 8:55pm PDT
Clear
Clear
 Wind from W
Wind: W 8 mph , 13 km/h
Temperature: 72°F , 22°C
Dew Point: 45°F , 7°C
Humidity: 38%
Barometer: 30.07 inHg , 1018.3 hPa
Clouds: Clear
Visibility: 10 miles , 16 km
2020/08/12 03:55 KTSP 120355Z AUTO 27007KT 10SM CLR 22/07 A3007 RMK AO2